Login to view Products
 
Tuesday, July 23, 2019 (12:21 UTC)
Ras Al Khaimah International Airport
ICAO: OMRK
IATA: RKT
  • METAR OMRK 231200Z 34011KT 8000 NSC 39/25 Q0995 A2940=
  • TAF OMRK 231100Z 2312/2418 02010KT 7000 NSC BECMG 2314/2316 10007KT PROB30 TEMPO 2400/2405 10017G27KT 4000 BLDU BECMG 2408/2410 33012KT BECMG 2414/2416 08007KT=
D:\Input Parser\Destinations\Final\11\OMRKL12181100747684337.txt
1